createdAt,value
2022-09-26T00:01:43.610Z,9.47
2022-09-26T00:04:22.670Z,9.44
2022-09-26T00:06:55.255Z,9.42
2022-09-26T00:09:25.758Z,9.39
2022-09-26T00:11:54.459Z,9.37
2022-09-26T00:14:25.777Z,9.35
2022-09-26T00:16:54.460Z,9.33
2022-09-26T00:19:23.857Z,9.31
2022-09-26T00:21:52.509Z,9.30
2022-09-26T00:24:21.068Z,9.27
2022-09-26T00:26:49.683Z,9.26
2022-09-26T00:29:18.185Z,9.23
2022-09-26T00:31:48.410Z,9.20
2022-09-26T00:34:19.251Z,9.18
2022-09-26T00:36:49.753Z,9.15
2022-09-26T00:39:18.377Z,9.12
2022-09-26T00:41:46.865Z,9.10
2022-09-26T00:44:40.649Z,9.07
2022-09-26T00:47:21.291Z,9.05
2022-09-26T00:49:52.781Z,9.03
2022-09-26T00:52:26.335Z,9.01
2022-09-26T00:54:59.064Z,8.99
2022-09-26T00:57:33.171Z,8.97
2022-09-26T01:00:05.447Z,8.94
2022-09-26T01:02:34.707Z,8.92
2022-09-26T01:05:07.001Z,8.91
2022-09-26T01:07:35.895Z,8.90
2022-09-26T01:10:06.511Z,8.89
2022-09-26T01:12:37.539Z,8.88
2022-09-26T01:15:09.227Z,8.88
2022-09-26T01:17:39.785Z,8.87
2022-09-26T01:20:24.360Z,8.86
2022-09-26T01:23:24.395Z,8.86
2022-09-26T01:26:19.778Z,8.84
2022-09-26T01:29:08.220Z,8.83
2022-09-26T01:32:06.434Z,8.82
2022-09-26T01:34:43.574Z,8.82
2022-09-26T01:37:22.344Z,8.82
2022-09-26T01:40:03.019Z,8.81
2022-09-26T01:42:39.650Z,8.81
2022-09-26T01:45:17.559Z,8.81
2022-09-26T01:47:55.305Z,8.81
2022-09-26T01:50:31.362Z,8.82
2022-09-26T01:53:05.272Z,8.82
2022-09-26T01:55:40.234Z,8.83
2022-09-26T01:58:14.049Z,8.84
2022-09-26T02:00:46.858Z,8.86
2022-09-26T02:03:19.073Z,8.87
2022-09-26T02:05:52.628Z,8.88
2022-09-26T02:08:26.450Z,8.88
2022-09-26T02:11:01.685Z,8.88
2022-09-26T02:13:35.242Z,8.88
2022-09-26T02:16:07.912Z,8.87
2022-09-26T02:18:41.076Z,8.87
2022-09-26T02:21:14.610Z,8.85
2022-09-26T02:23:43.387Z,8.83
2022-09-26T02:26:11.976Z,8.82
2022-09-26T02:28:42.783Z,8.81
2022-09-26T02:31:19.933Z,8.80
2022-09-26T02:33:49.510Z,8.79
2022-09-26T02:36:20.582Z,8.79
2022-09-26T02:38:49.101Z,8.78
2022-09-26T02:41:45.830Z,8.79
2022-09-26T02:44:30.042Z,8.79
2022-09-26T02:47:17.421Z,8.80
2022-09-26T02:50:02.402Z,8.81
2022-09-26T02:52:42.617Z,8.82
2022-09-26T02:55:20.672Z,8.83
2022-09-26T02:58:05.137Z,8.84
2022-09-26T03:00:48.232Z,8.85
2022-09-26T03:03:22.355Z,8.87
2022-09-26T03:05:54.725Z,8.87
2022-09-26T03:08:26.859Z,8.87
2022-09-26T03:11:02.068Z,8.88
2022-09-26T03:13:35.671Z,8.89
2022-09-26T03:16:06.257Z,8.88
2022-09-26T03:18:40.160Z,8.88
2022-09-26T03:21:09.377Z,8.88
2022-09-26T03:23:38.647Z,8.88
2022-09-26T03:26:12.109Z,8.88
2022-09-26T03:28:47.536Z,8.89
2022-09-26T03:31:21.794Z,8.89
2022-09-26T03:33:55.689Z,8.89
2022-09-26T03:36:24.345Z,8.87
2022-09-26T03:38:53.018Z,8.88
2022-09-26T03:41:44.620Z,8.88
2022-09-26T03:44:30.016Z,8.88
2022-09-26T03:47:16.619Z,8.88
2022-09-26T03:49:46.646Z,8.88
2022-09-26T03:52:15.194Z,8.87
2022-09-26T03:54:45.182Z,8.86
2022-09-26T03:57:15.006Z,8.87
2022-09-26T03:59:54.598Z,8.86
2022-09-26T04:02:23.194Z,8.86
2022-09-26T04:04:57.392Z,8.85
2022-09-26T04:07:26.173Z,8.85
2022-09-26T04:09:54.740Z,8.83
2022-09-26T04:12:23.226Z,8.84
2022-09-26T04:14:53.789Z,8.82
2022-09-26T04:17:23.752Z,8.83
2022-09-26T04:19:52.119Z,8.83
2022-09-26T04:22:20.854Z,8.82
2022-09-26T04:24:50.973Z,8.82
2022-09-26T04:27:23.110Z,8.82
2022-09-26T04:29:51.639Z,8.80
2022-09-26T04:32:38.135Z,8.79
2022-09-26T04:35:26.741Z,8.78
2022-09-26T04:37:55.213Z,8.77
2022-09-26T04:40:23.799Z,8.76
2022-09-26T04:43:01.302Z,8.76
2022-09-26T04:45:29.836Z,8.75
2022-09-26T04:47:58.315Z,8.75
2022-09-26T04:50:28.310Z,8.77
2022-09-26T04:53:06.705Z,8.77
2022-09-26T04:55:38.788Z,8.78
2022-09-26T04:58:07.181Z,8.79
2022-09-26T05:00:35.713Z,8.81
2022-09-26T05:03:09.110Z,8.82
2022-09-26T05:05:38.585Z,8.84
2022-09-26T05:08:07.301Z,8.85
2022-09-26T05:10:35.757Z,8.88
2022-09-26T05:13:04.310Z,8.90
2022-09-26T05:15:39.253Z,8.93
2022-09-26T05:18:10.722Z,8.98
2022-09-26T05:20:39.651Z,9.01
2022-09-26T05:23:10.064Z,9.03
2022-09-26T05:25:59.507Z,9.05
2022-09-26T05:28:28.007Z,9.08
2022-09-26T05:30:56.673Z,9.10
2022-09-26T05:33:25.371Z,9.13
2022-09-26T05:35:54.206Z,9.16
2022-09-26T05:38:22.727Z,9.20
2022-09-26T05:40:57.613Z,9.23
2022-09-26T05:43:28.939Z,9.26
2022-09-26T05:45:59.507Z,9.28
2022-09-26T05:48:32.052Z,9.31
2022-09-26T05:51:10.347Z,9.33
2022-09-26T05:53:43.046Z,9.36
2022-09-26T05:56:18.249Z,9.38
2022-09-26T05:59:06.434Z,9.42
2022-09-26T06:01:54.288Z,9.46
2022-09-26T06:04:31.676Z,9.50
2022-09-26T06:07:13.541Z,9.54
2022-09-26T06:09:44.057Z,9.56
2022-09-26T06:12:18.979Z,9.60
2022-09-26T06:14:47.403Z,9.63
2022-09-26T06:17:15.900Z,9.66
2022-09-26T06:19:45.075Z,9.71
2022-09-26T06:22:13.972Z,9.74
2022-09-26T06:24:42.592Z,9.80
2022-09-26T06:27:13.405Z,9.86
2022-09-26T06:29:43.071Z,9.91
2022-09-26T06:32:11.763Z,9.94
2022-09-26T06:34:43.190Z,10.01
2022-09-26T06:37:32.166Z,10.05
2022-09-26T06:40:02.476Z,10.11
2022-09-26T06:42:37.433Z,10.16
2022-09-26T06:45:21.189Z,10.21
2022-09-26T06:48:11.400Z,10.28
2022-09-26T06:51:00.161Z,10.35
2022-09-26T06:53:30.240Z,10.39
2022-09-26T06:55:59.884Z,10.46
2022-09-26T06:58:28.676Z,10.54
2022-09-26T07:01:08.167Z,10.63
2022-09-26T07:03:45.986Z,10.72
2022-09-26T07:06:28.463Z,10.82
2022-09-26T07:09:03.176Z,10.90
2022-09-26T07:12:14.243Z,11.00
2022-09-26T07:14:43.087Z,11.11
2022-09-26T07:17:32.452Z,11.26
2022-09-26T07:20:20.470Z,11.39
2022-09-26T07:23:08.062Z,11.47
2022-09-26T07:25:38.937Z,11.55
2022-09-26T07:28:09.467Z,11.64
2022-09-26T07:30:59.070Z,11.72
2022-09-26T07:33:47.881Z,11.81
2022-09-26T07:36:17.897Z,11.89
2022-09-26T07:38:48.738Z,11.93
2022-09-26T07:41:18.722Z,11.99
2022-09-26T07:46:55.124Z,12.09
2022-09-26T07:49:42.840Z,12.15
2022-09-26T07:52:37.421Z,12.21
2022-09-26T07:55:25.913Z,12.27
2022-09-26T07:58:13.082Z,12.35
2022-09-26T08:01:00.004Z,12.41
2022-09-26T08:03:47.970Z,12.48
2022-09-26T08:06:36.689Z,12.56
2022-09-26T08:09:05.456Z,12.64
2022-09-26T08:11:52.691Z,12.72
2022-09-26T08:14:40.015Z,12.82
2022-09-26T08:17:32.044Z,12.92
2022-09-26T08:20:01.141Z,13.00
2022-09-26T08:22:30.397Z,13.10
2022-09-26T08:25:00.254Z,13.19
2022-09-26T08:27:47.987Z,13.29
2022-09-26T08:30:17.287Z,13.38
2022-09-26T08:32:53.424Z,13.49
2022-09-26T08:35:22.062Z,13.59
2022-09-26T08:38:16.793Z,13.75
2022-09-26T08:40:55.547Z,13.85
2022-09-26T08:43:52.069Z,13.98
2022-09-26T08:46:51.019Z,14.10
2022-09-26T08:49:42.183Z,14.17
2022-09-26T08:52:29.355Z,14.26
2022-09-26T08:55:01.155Z,14.35
2022-09-26T08:57:36.586Z,14.45
2022-09-26T09:00:18.285Z,14.58
2022-09-26T09:03:01.280Z,14.73
2022-09-26T09:05:33.796Z,14.87
2022-09-26T09:08:08.840Z,14.98
2022-09-26T09:10:53.292Z,15.09
2022-09-26T09:13:48.436Z,15.21
2022-09-26T09:16:41.587Z,15.33
2022-09-26T09:19:39.919Z,15.45
2022-09-26T09:23:12.103Z,15.57
2022-09-26T09:25:54.607Z,15.69
2022-09-26T09:28:34.316Z,15.77
2022-09-26T09:31:06.268Z,15.84
2022-09-26T09:34:08.937Z,15.95
2022-09-26T09:37:02.446Z,16.04
2022-09-26T09:39:50.810Z,16.13
2022-09-26T09:42:36.515Z,16.19
2022-09-26T09:45:16.575Z,16.24
2022-09-26T09:47:46.691Z,16.30
2022-09-26T09:50:25.415Z,16.37
2022-09-26T09:53:05.650Z,16.43
2022-09-26T09:55:46.675Z,16.48
2022-09-26T09:58:29.204Z,16.51
2022-09-26T10:01:09.211Z,16.56
2022-09-26T10:03:43.528Z,16.57
2022-09-26T10:06:45.245Z,16.59
2022-09-26T10:09:39.242Z,16.58
2022-09-26T10:12:23.081Z,16.56
2022-09-26T10:15:19.360Z,16.55
2022-09-26T10:18:27.049Z,16.53
2022-09-26T10:21:27.940Z,16.59
2022-09-26T10:23:58.457Z,16.67
2022-09-26T10:26:44.198Z,16.78
2022-09-26T10:29:24.016Z,16.81
2022-09-26T10:31:59.717Z,16.85
2022-09-26T10:34:30.706Z,16.91
2022-09-26T10:37:20.903Z,16.98
2022-09-26T10:40:12.328Z,17.05
2022-09-26T10:42:46.069Z,17.18
2022-09-26T10:45:19.797Z,17.31
2022-09-26T10:48:21.500Z,17.41
2022-09-26T10:51:14.468Z,17.42
2022-09-26T10:53:51.455Z,17.40
2022-09-26T10:56:26.553Z,17.39
2022-09-26T10:58:59.612Z,17.45
2022-09-26T11:01:30.832Z,17.54
2022-09-26T11:04:36.383Z,17.54
2022-09-26T11:07:29.808Z,17.59
2022-09-26T11:10:24.752Z,17.56
2022-09-26T11:13:18.309Z,17.54
2022-09-26T11:16:00.559Z,17.52
2022-09-26T11:18:40.117Z,17.42
2022-09-26T11:21:28.265Z,17.38
2022-09-26T11:24:10.969Z,17.42
2022-09-26T11:26:49.019Z,17.47
2022-09-26T11:29:24.167Z,17.48
2022-09-26T11:32:05.089Z,17.48
2022-09-26T11:35:02.362Z,17.46
2022-09-26T11:37:50.147Z,17.42
2022-09-26T11:40:35.308Z,17.40
2022-09-26T11:43:14.993Z,17.40
2022-09-26T11:45:58.893Z,17.34
2022-09-26T11:49:34.590Z,17.29
2022-09-26T11:52:57.816Z,17.26
2022-09-26T11:55:32.786Z,17.22
2022-09-26T11:58:11.067Z,17.18
2022-09-26T12:00:50.949Z,17.18
2022-09-26T12:03:45.016Z,17.22
2022-09-26T12:06:25.336Z,17.24
2022-09-26T12:09:18.321Z,17.22
2022-09-26T12:11:59.448Z,17.25
2022-09-26T12:14:42.517Z,17.27
2022-09-26T12:17:19.555Z,17.26
2022-09-26T12:19:57.434Z,17.24
2022-09-26T12:22:34.416Z,17.24
2022-09-26T12:25:29.918Z,17.26
2022-09-26T12:28:11.166Z,17.31
2022-09-26T12:30:48.374Z,17.38
2022-09-26T12:33:49.730Z,17.43
2022-09-26T12:36:30.620Z,17.45
2022-09-26T12:39:16.794Z,17.51
2022-09-26T12:42:03.893Z,17.52
2022-09-26T12:44:55.141Z,17.55
2022-09-26T12:47:42.814Z,17.57
2022-09-26T12:50:24.422Z,17.60
2022-09-26T12:53:25.852Z,17.57
2022-09-26T12:56:05.639Z,17.51
2022-09-26T12:58:45.509Z,17.49
2022-09-26T13:01:30.470Z,17.51
2022-09-26T13:04:23.490Z,17.54
2022-09-26T13:07:18.870Z,17.53
2022-09-26T13:10:15.355Z,17.53
2022-09-26T13:13:02.513Z,17.52
2022-09-26T13:15:39.429Z,17.48
2022-09-26T13:18:15.618Z,17.45
2022-09-26T13:20:49.397Z,17.46
2022-09-26T13:23:26.840Z,17.46
2022-09-26T13:26:00.077Z,17.43
2022-09-26T13:28:37.175Z,17.40
2022-09-26T13:31:18.379Z,17.40
2022-09-26T13:33:52.329Z,17.41
2022-09-26T13:36:22.555Z,17.43
2022-09-26T13:38:58.425Z,17.44
2022-09-26T13:41:38.072Z,17.45
2022-09-26T13:44:22.305Z,17.45
2022-09-26T13:47:01.147Z,17.45
2022-09-26T13:49:43.097Z,17.43
2022-09-26T13:52:27.586Z,17.41
2022-09-26T13:55:01.467Z,17.36
2022-09-26T13:57:38.247Z,17.32
2022-09-26T14:00:40.191Z,17.27
2022-09-26T14:03:44.258Z,17.26
2022-09-26T14:06:33.099Z,17.30
2022-09-26T14:09:27.541Z,17.35
2022-09-26T14:12:33.965Z,17.37
2022-09-26T14:15:23.586Z,17.31
2022-09-26T14:18:07.028Z,17.23
2022-09-26T14:20:50.653Z,17.21
2022-09-26T14:23:34.664Z,17.15
2022-09-26T14:26:07.896Z,17.06
2022-09-26T14:28:38.641Z,16.97
2022-09-26T14:31:43.638Z,16.90
2022-09-26T14:34:22.242Z,16.81
2022-09-26T14:36:52.823Z,16.75
2022-09-26T14:39:31.419Z,16.68
2022-09-26T14:42:08.312Z,16.64
2022-09-26T14:44:38.478Z,16.61
2022-09-26T14:47:15.901Z,16.57
2022-09-26T14:49:54.123Z,16.55
2022-09-26T14:52:24.701Z,16.51
2022-09-26T14:55:00.453Z,16.49
2022-09-26T14:57:32.770Z,16.47
2022-09-26T15:00:22.414Z,16.46
2022-09-26T15:03:00.261Z,16.45
2022-09-26T15:05:31.250Z,16.44
2022-09-26T15:08:00.661Z,16.40
2022-09-26T15:10:41.213Z,16.37
2022-09-26T15:13:21.916Z,16.34
2022-09-26T15:15:57.763Z,16.28
2022-09-26T15:18:37.196Z,16.25
2022-09-26T15:21:18.350Z,16.23
2022-09-26T15:23:49.758Z,16.22
2022-09-26T15:26:21.811Z,16.19
2022-09-26T15:28:52.184Z,16.14
2022-09-26T15:31:27.627Z,16.12
2022-09-26T15:34:01.489Z,16.09
2022-09-26T15:36:31.602Z,16.03
2022-09-26T15:39:01.458Z,15.93
2022-09-26T15:41:48.518Z,15.79
2022-09-26T15:44:30.423Z,15.59
2022-09-26T15:46:59.271Z,15.46
2022-09-26T15:49:28.114Z,15.33
2022-09-26T15:51:57.430Z,15.24
2022-09-26T15:54:30.487Z,15.18
2022-09-26T15:57:02.271Z,15.07
2022-09-26T15:59:38.582Z,14.83
2022-09-26T16:02:25.688Z,14.59
2022-09-26T16:04:55.253Z,14.48
2022-09-26T16:07:27.388Z,14.41
2022-09-26T16:09:57.634Z,14.34
2022-09-26T16:12:29.211Z,14.30
2022-09-26T16:15:03.058Z,14.25
2022-09-26T16:17:35.238Z,14.20
2022-09-26T16:20:21.444Z,14.15
2022-09-26T16:22:51.431Z,14.13
2022-09-26T16:25:52.212Z,14.09
2022-09-26T16:28:36.997Z,14.05
2022-09-26T16:31:23.775Z,14.01
2022-09-26T16:33:54.708Z,13.97
2022-09-26T16:36:25.231Z,13.93
2022-09-26T16:38:56.437Z,13.89
2022-09-26T16:41:56.140Z,13.85
2022-09-26T16:44:27.380Z,13.80
2022-09-26T16:47:01.073Z,13.76
2022-09-26T16:49:42.345Z,13.71
2022-09-26T16:52:24.563Z,13.65
2022-09-26T16:54:53.457Z,13.59
2022-09-26T16:57:26.142Z,13.58
2022-09-26T17:00:17.455Z,13.57
2022-09-26T17:02:46.721Z,13.55
2022-09-26T17:05:18.832Z,13.54
2022-09-26T17:07:49.619Z,13.54
2022-09-26T17:10:19.546Z,13.52
2022-09-26T17:12:50.850Z,13.51
2022-09-26T17:15:25.931Z,13.50
2022-09-26T17:18:00.510Z,13.48
2022-09-26T17:20:29.542Z,13.48
2022-09-26T17:22:58.291Z,13.47
2022-09-26T17:25:27.143Z,13.45
2022-09-26T17:27:58.982Z,13.44
2022-09-26T17:30:28.942Z,13.42
2022-09-26T17:32:58.480Z,13.40
2022-09-26T17:35:31.419Z,13.39
2022-09-26T17:38:00.491Z,13.39
2022-09-26T17:40:31.461Z,13.39
2022-09-26T17:43:01.502Z,13.39
2022-09-26T17:45:33.329Z,13.39
2022-09-26T17:48:04.911Z,13.39
2022-09-26T17:50:34.923Z,13.39
2022-09-26T17:53:03.763Z,13.38
2022-09-26T17:55:32.958Z,13.38
2022-09-26T17:58:04.466Z,13.37
2022-09-26T18:00:38.324Z,13.36
2022-09-26T18:03:10.688Z,13.36
2022-09-26T18:05:39.937Z,13.35
2022-09-26T18:08:16.741Z,13.33
2022-09-26T18:10:49.555Z,13.32
2022-09-26T18:13:25.527Z,13.32
2022-09-26T18:15:55.169Z,13.31
2022-09-26T18:18:27.260Z,13.30
2022-09-26T18:20:58.156Z,13.30
2022-09-26T18:23:29.231Z,13.29
2022-09-26T18:25:59.318Z,13.27
2022-09-26T18:28:28.200Z,13.25
2022-09-26T18:31:00.250Z,13.25
2022-09-26T18:33:35.774Z,13.24
2022-09-26T18:36:12.010Z,13.21
2022-09-26T18:38:40.728Z,13.18
2022-09-26T18:41:11.078Z,13.15
2022-09-26T18:43:41.804Z,13.12
2022-09-26T18:46:13.382Z,13.07
2022-09-26T18:48:42.502Z,13.02
2022-09-26T18:51:12.110Z,12.98
2022-09-26T18:53:41.443Z,12.94
2022-09-26T18:56:29.502Z,12.90
2022-09-26T18:58:58.269Z,12.85
2022-09-26T19:01:30.092Z,12.80
2022-09-26T19:04:00.903Z,12.77
2022-09-26T19:06:34.308Z,12.74
2022-09-26T19:09:05.689Z,12.73
2022-09-26T19:11:35.611Z,12.72
2022-09-26T19:14:13.207Z,12.70
2022-09-26T19:16:44.596Z,12.69
2022-09-26T19:19:14.003Z,12.67
2022-09-26T19:21:46.214Z,12.65
2022-09-26T19:24:20.870Z,12.62
2022-09-26T19:26:54.072Z,12.59
2022-09-26T19:29:29.905Z,12.56
2022-09-26T19:31:58.924Z,12.54
2022-09-26T19:34:32.526Z,12.51
2022-09-26T19:37:02.459Z,12.48
2022-09-26T19:39:31.838Z,12.46
2022-09-26T19:42:01.117Z,12.43
2022-09-26T19:44:29.740Z,12.42
2022-09-26T19:46:59.251Z,12.39
2022-09-26T19:49:30.581Z,12.38
2022-09-26T19:52:00.580Z,12.35
2022-09-26T19:54:29.322Z,12.33
2022-09-26T19:56:58.387Z,12.32
2022-09-26T19:59:27.753Z,12.29
2022-09-26T20:01:56.584Z,12.29
2022-09-26T20:04:26.623Z,12.27
2022-09-26T20:06:55.033Z,12.25
2022-09-26T20:09:23.410Z,12.23
2022-09-26T20:11:52.773Z,12.22
2022-09-26T20:14:24.038Z,12.20
2022-09-26T20:16:55.106Z,12.17
2022-09-26T20:19:35.659Z,12.13
2022-09-26T20:22:06.881Z,12.09
2022-09-26T20:24:37.866Z,12.05
2022-09-26T20:27:10.476Z,12.00
2022-09-26T20:29:57.308Z,11.96
2022-09-26T20:32:25.924Z,11.91
2022-09-26T20:34:59.741Z,11.85
2022-09-26T20:37:31.141Z,11.80
2022-09-26T20:51:00.060Z,12.01
2022-09-26T20:53:31.959Z,11.97
2022-09-26T20:56:04.175Z,11.89
2022-09-26T20:58:36.023Z,11.82
2022-09-26T21:01:12.039Z,11.76
2022-09-26T21:03:46.925Z,11.69
2022-09-26T21:06:21.196Z,11.63
2022-09-26T21:08:53.376Z,11.58
2022-09-26T21:11:25.593Z,11.53
2022-09-26T21:13:57.576Z,11.48
2022-09-26T21:16:29.563Z,11.42
2022-09-26T21:19:01.819Z,11.37
2022-09-26T21:21:33.664Z,11.32
2022-09-26T21:24:24.815Z,11.26
2022-09-26T21:26:57.397Z,11.20
2022-09-26T21:29:29.887Z,11.15
2022-09-26T21:32:04.602Z,11.10
2022-09-26T21:34:38.837Z,11.05
2022-09-26T21:37:12.308Z,11.01
2022-09-26T21:39:44.177Z,10.97
2022-09-26T21:42:16.451Z,10.94
2022-09-26T21:44:54.260Z,10.90
2022-09-26T21:47:26.637Z,10.87
2022-09-26T21:49:58.485Z,10.85
2022-09-26T21:52:37.015Z,10.84
2022-09-26T21:55:13.934Z,10.84
2022-09-26T21:57:48.130Z,10.83
2022-09-26T22:00:20.064Z,10.83
2022-09-26T22:02:52.001Z,10.82
2022-09-26T22:05:23.983Z,10.83
2022-09-26T22:07:57.430Z,10.82
2022-09-26T22:10:29.799Z,10.83
2022-09-26T22:13:01.720Z,10.81
2022-09-26T22:15:33.570Z,10.80
2022-09-26T22:18:05.931Z,10.79
2022-09-26T22:20:38.228Z,10.78
2022-09-26T22:23:10.107Z,10.77
2022-09-26T22:25:43.004Z,10.74
2022-09-26T22:28:14.924Z,10.71
2022-09-26T22:30:46.833Z,10.68
2022-09-26T22:33:20.095Z,10.65
2022-09-26T22:35:52.605Z,10.62
2022-09-26T22:38:24.447Z,10.60
2022-09-26T22:41:00.758Z,10.56
2022-09-26T22:43:34.038Z,10.53
2022-09-26T22:46:08.749Z,10.49
2022-09-26T22:48:42.888Z,10.45
2022-09-26T22:51:15.449Z,10.41
2022-09-26T22:53:47.562Z,10.38
2022-09-26T22:56:20.071Z,10.35
2022-09-26T22:58:53.474Z,10.31
2022-09-26T23:01:28.846Z,10.27
2022-09-26T23:04:01.337Z,10.24
2022-09-26T23:06:34.039Z,10.22
2022-09-26T23:09:08.876Z,10.17
2022-09-26T23:11:41.059Z,10.14
2022-09-26T23:14:12.832Z,10.09
2022-09-26T23:16:44.658Z,10.06
2022-09-26T23:19:16.952Z,10.03
2022-09-26T23:21:49.168Z,9.98
2022-09-26T23:24:21.391Z,9.95
2022-09-26T23:26:53.320Z,9.92
2022-09-26T23:29:25.438Z,9.87
2022-09-26T23:31:57.991Z,9.83
2022-09-26T23:34:29.738Z,9.80
2022-09-26T23:37:01.595Z,9.76
2022-09-26T23:39:33.474Z,9.72
2022-09-26T23:42:05.448Z,9.67
2022-09-26T23:44:37.313Z,9.62
2022-09-26T23:47:11.527Z,9.58
2022-09-26T23:49:43.338Z,9.53
2022-09-26T23:52:15.194Z,9.49
2022-09-26T23:54:47.273Z,9.45
2022-09-26T23:57:19.052Z,9.40
2022-09-26T23:59:50.824Z,9.37
